createdAt,value
2019-01-25T00:00:43.634Z,1.70
2019-01-25T00:03:15.862Z,1.80
2019-01-25T00:05:47.852Z,1.70
2019-01-25T00:08:19.899Z,1.80
2019-01-25T00:10:52.112Z,1.80
2019-01-25T00:13:24.272Z,1.70
2019-01-25T00:15:56.232Z,1.70
2019-01-25T00:18:29.440Z,0.90
2019-01-25T00:21:01.560Z,1.70
2019-01-25T00:23:33.495Z,1.60
2019-01-25T00:26:06.167Z,1.60
2019-01-25T00:28:38.175Z,1.60
2019-01-25T00:31:10.210Z,1.60
2019-01-25T00:33:42.296Z,1.70
2019-01-25T00:36:14.438Z,1.70
2019-01-25T00:38:46.411Z,1.70
2019-01-25T00:41:19.498Z,1.70
2019-01-25T00:43:51.629Z,1.70
2019-01-25T00:46:23.681Z,1.70
2019-01-25T00:48:56.613Z,1.60
2019-01-25T00:51:28.592Z,1.60
2019-01-25T00:54:00.492Z,1.60
2019-01-25T00:56:32.467Z,1.60
2019-01-25T00:59:05.026Z,1.60
2019-01-25T01:01:36.960Z,1.60
2019-01-25T01:04:09.037Z,1.70
2019-01-25T01:06:41.198Z,1.70
2019-01-25T01:09:13.900Z,1.70
2019-01-25T01:11:45.874Z,1.70
2019-01-25T01:14:17.930Z,1.70
2019-01-25T01:16:49.954Z,1.70
2019-01-25T01:19:21.991Z,1.80
2019-01-25T01:21:54.013Z,1.80
2019-01-25T01:24:25.966Z,1.80
2019-01-25T01:26:58.074Z,1.80
2019-01-25T01:29:29.948Z,1.80
2019-01-25T01:32:01.930Z,1.80
2019-01-25T01:34:33.969Z,1.80
2019-01-25T01:37:06.251Z,1.80
2019-01-25T01:39:38.285Z,1.80
2019-01-25T01:42:10.386Z,1.80
2019-01-25T01:44:42.371Z,1.80
2019-01-25T01:47:14.541Z,1.80
2019-01-25T01:49:46.635Z,1.80
2019-01-25T01:52:18.642Z,1.80
2019-01-25T01:54:50.609Z,1.80
2019-01-25T01:57:22.538Z,1.80
2019-01-25T01:59:54.447Z,1.90
2019-01-25T02:02:26.595Z,1.90
2019-01-25T02:04:58.555Z,1.90
2019-01-25T02:07:30.617Z,1.90
2019-01-25T02:10:02.651Z,1.90
2019-01-25T02:12:34.540Z,1.90
2019-01-25T02:15:08.663Z,1.90
2019-01-25T02:17:40.712Z,1.90
2019-01-25T02:20:17.399Z,1.90
2019-01-25T02:22:49.663Z,1.90
2019-01-25T02:25:21.643Z,1.90
2019-01-25T02:27:53.824Z,1.90
2019-01-25T02:30:27.775Z,1.90
2019-01-25T02:32:59.886Z,1.60
2019-01-25T02:35:31.846Z,2.00
2019-01-25T02:38:03.723Z,2.00
2019-01-25T02:40:38.808Z,2.00
2019-01-25T02:43:09.691Z,2.00
2019-01-25T02:45:41.722Z,2.00
2019-01-25T02:48:21.462Z,2.00
2019-01-25T02:50:53.387Z,2.00
2019-01-25T02:53:25.264Z,2.00
2019-01-25T02:55:57.153Z,2.00
2019-01-25T02:58:29.021Z,2.00
2019-01-25T03:01:00.961Z,2.00
2019-01-25T03:03:32.904Z,2.00
2019-01-25T03:06:05.330Z,2.00
2019-01-25T03:08:37.191Z,1.50
2019-01-25T03:11:08.991Z,1.90
2019-01-25T03:13:40.811Z,1.90
2019-01-25T03:16:13.896Z,1.90
2019-01-25T03:18:45.714Z,1.90
2019-01-25T03:21:17.596Z,2.00
2019-01-25T03:23:49.389Z,1.90
2019-01-25T03:26:21.349Z,1.90
2019-01-25T03:28:53.286Z,1.90
2019-01-25T03:31:25.061Z,1.90
2019-01-25T03:33:56.827Z,1.90
2019-01-25T03:36:28.657Z,1.90
2019-01-25T03:39:00.672Z,1.90
2019-01-25T03:41:32.636Z,1.90
2019-01-25T03:44:04.889Z,2.00
2019-01-25T03:46:36.708Z,2.00
2019-01-25T03:49:08.502Z,2.00
2019-01-25T03:51:40.438Z,2.00
2019-01-25T03:54:12.222Z,2.00
2019-01-25T03:56:44.017Z,2.00
2019-01-25T03:59:15.922Z,2.00
2019-01-25T04:01:47.877Z,2.00
2019-01-25T04:04:19.717Z,2.10
2019-01-25T04:06:51.546Z,1.90
2019-01-25T04:09:23.557Z,2.10
2019-01-25T04:11:55.511Z,2.10
2019-01-25T04:14:27.305Z,2.10
2019-01-25T04:16:59.135Z,2.10
2019-01-25T04:19:30.921Z,2.20
2019-01-25T04:22:02.747Z,2.10
2019-01-25T04:24:34.541Z,2.20
2019-01-25T04:27:06.642Z,2.20
2019-01-25T04:29:38.419Z,2.20
2019-01-25T04:32:10.247Z,2.20
2019-01-25T04:34:42.023Z,2.20
2019-01-25T04:37:13.840Z,2.20
2019-01-25T04:39:45.754Z,2.20
2019-01-25T04:42:17.537Z,2.20
2019-01-25T04:44:49.383Z,2.30
2019-01-25T04:47:29.496Z,2.20
2019-01-25T04:50:01.295Z,2.30
2019-01-25T04:52:33.385Z,2.30
2019-01-25T04:55:32.114Z,2.30
2019-01-25T04:58:22.477Z,2.30
2019-01-25T05:00:54.319Z,2.30
2019-01-25T05:03:26.275Z,1.90
2019-01-25T05:05:58.090Z,2.20
2019-01-25T05:08:30.020Z,2.20
2019-01-25T05:11:01.931Z,2.20
2019-01-25T05:13:33.858Z,2.20
2019-01-25T05:16:10.133Z,2.20
2019-01-25T05:18:42.030Z,2.20
2019-01-25T05:21:23.266Z,2.20
2019-01-25T05:23:55.312Z,2.20
2019-01-25T05:26:27.174Z,2.30
2019-01-25T05:28:58.998Z,2.20
2019-01-25T05:31:31.244Z,2.20
2019-01-25T05:34:03.055Z,2.20
2019-01-25T05:36:35.170Z,2.30
2019-01-25T05:39:09.517Z,1.80
2019-01-25T05:41:41.348Z,2.20
2019-01-25T05:44:13.177Z,2.20
2019-01-25T05:46:44.992Z,2.20
2019-01-25T05:49:18.407Z,2.20
2019-01-25T05:51:50.405Z,2.20
2019-01-25T05:54:22.397Z,2.30
2019-01-25T05:56:54.228Z,2.30
2019-01-25T05:59:26.202Z,2.30
2019-01-25T06:01:58.025Z,2.30
2019-01-25T06:04:36.377Z,2.30
2019-01-25T06:07:08.573Z,2.30
2019-01-25T06:09:40.394Z,2.30
2019-01-25T06:12:12.217Z,2.40
2019-01-25T06:14:44.361Z,2.40
2019-01-25T06:17:16.201Z,2.40
2019-01-25T06:19:48.007Z,2.40
2019-01-25T06:22:19.856Z,2.40
2019-01-25T06:24:51.984Z,2.40
2019-01-25T06:27:23.938Z,2.40
2019-01-25T06:29:55.725Z,2.50
2019-01-25T06:32:27.915Z,2.40
2019-01-25T06:34:59.844Z,2.50
2019-01-25T06:37:31.655Z,2.50
2019-01-25T06:40:03.768Z,2.50
2019-01-25T06:42:35.549Z,2.50
2019-01-25T06:45:08.654Z,2.40
2019-01-25T06:47:40.684Z,2.40
2019-01-25T06:50:12.693Z,2.40
2019-01-25T06:52:44.494Z,2.40
2019-01-25T06:55:16.309Z,2.10
2019-01-25T06:57:55.112Z,2.40
2019-01-25T07:00:29.162Z,2.40
2019-01-25T07:03:00.964Z,2.40
2019-01-25T07:05:33.021Z,2.40
2019-01-25T07:08:05.121Z,2.40
2019-01-25T07:10:37.120Z,2.40
2019-01-25T07:13:20.511Z,2.40
2019-01-25T07:15:53.004Z,2.30
2019-01-25T07:18:24.831Z,2.30
2019-01-25T07:20:56.803Z,2.30
2019-01-25T07:23:30.044Z,1.30
2019-01-25T07:26:02.158Z,2.30
2019-01-25T07:28:33.943Z,2.20
2019-01-25T07:31:06.098Z,2.30
2019-01-25T07:33:37.882Z,2.30
2019-01-25T07:36:09.987Z,2.30
2019-01-25T07:38:41.821Z,2.30
2019-01-25T07:41:13.605Z,2.40
2019-01-25T07:43:45.442Z,2.30
2019-01-25T07:46:17.245Z,2.40
2019-01-25T07:48:49.357Z,2.30
2019-01-25T07:51:21.416Z,2.40
2019-01-25T07:53:53.356Z,2.40
2019-01-25T07:56:25.335Z,2.40
2019-01-25T07:58:57.379Z,2.40
2019-01-25T08:01:29.343Z,2.40
2019-01-25T08:04:01.185Z,2.40
2019-01-25T08:06:33.354Z,2.40
2019-01-25T08:09:08.583Z,2.40
2019-01-25T08:11:40.530Z,2.40
2019-01-25T08:14:12.912Z,2.40
2019-01-25T08:16:45.283Z,2.40
2019-01-25T08:19:17.385Z,2.40
2019-01-25T08:21:54.771Z,2.50
2019-01-25T08:24:30.910Z,2.50
2019-01-25T08:27:13.326Z,2.50
2019-01-25T08:29:50.409Z,2.50
2019-01-25T08:32:26.978Z,2.50
2019-01-25T08:35:06.223Z,2.50
2019-01-25T08:37:41.999Z,2.50
2019-01-25T08:40:25.245Z,2.50
2019-01-25T08:43:01.144Z,2.40
2019-01-25T08:45:34.514Z,2.50
2019-01-25T08:48:08.075Z,2.50
2019-01-25T08:50:43.477Z,2.40
2019-01-25T08:53:25.530Z,2.40
2019-01-25T08:55:57.458Z,2.50
2019-01-25T08:58:42.894Z,2.50
2019-01-25T09:01:16.664Z,2.50
2019-01-25T09:03:48.578Z,2.60
2019-01-25T09:06:27.231Z,2.60
2019-01-25T09:09:00.504Z,2.60
2019-01-25T09:11:35.307Z,2.70
2019-01-25T09:14:11.168Z,2.70
2019-01-25T09:16:44.440Z,2.70
2019-01-25T09:19:21.216Z,2.80
2019-01-25T09:22:05.990Z,2.80
2019-01-25T09:24:40.482Z,2.90
2019-01-25T09:27:14.901Z,3.00
2019-01-25T09:29:47.859Z,3.00
2019-01-25T09:32:21.416Z,3.00
2019-01-25T09:35:04.062Z,3.10
2019-01-25T09:37:43.616Z,3.10
2019-01-25T09:40:27.137Z,3.10
2019-01-25T09:43:03.120Z,3.20
2019-01-25T09:45:37.976Z,3.20
2019-01-25T09:48:13.110Z,3.20
2019-01-25T09:50:52.663Z,3.30
2019-01-25T09:53:26.918Z,3.30
2019-01-25T09:56:06.761Z,3.30
2019-01-25T09:58:48.836Z,3.30
2019-01-25T10:01:23.704Z,3.40
2019-01-25T10:03:55.790Z,3.40
2019-01-25T10:06:29.301Z,3.40
2019-01-25T10:09:01.252Z,3.40
2019-01-25T10:11:39.259Z,3.40
2019-01-25T10:14:15.967Z,3.50
2019-01-25T10:17:02.216Z,3.50
2019-01-25T10:19:38.725Z,3.50
2019-01-25T10:22:11.705Z,3.50
2019-01-25T10:24:47.959Z,3.60
2019-01-25T10:27:21.931Z,3.60
2019-01-25T10:30:00.626Z,3.60
2019-01-25T10:32:35.339Z,3.60
2019-01-25T10:35:29.150Z,3.70
2019-01-25T10:38:10.001Z,3.70
2019-01-25T10:40:47.065Z,3.70
2019-01-25T10:43:19.157Z,3.80
2019-01-25T10:45:57.720Z,3.90
2019-01-25T10:48:29.642Z,3.90
2019-01-25T10:51:08.692Z,3.90
2019-01-25T10:53:43.232Z,4.00
2019-01-25T10:56:17.488Z,4.10
2019-01-25T10:58:49.488Z,4.10
2019-01-25T11:01:21.807Z,4.10
2019-01-25T11:03:56.380Z,4.10
2019-01-25T11:06:30.336Z,4.20
2019-01-25T11:09:08.158Z,4.20
2019-01-25T11:11:40.224Z,4.20
2019-01-25T11:14:12.376Z,4.30
2019-01-25T11:16:45.789Z,4.30
2019-01-25T11:19:17.989Z,4.40
2019-01-25T11:21:55.542Z,4.40
2019-01-25T11:24:28.785Z,4.50
2019-01-25T11:27:03.295Z,4.50
2019-01-25T11:29:40.038Z,4.50
2019-01-25T11:32:11.953Z,4.60
2019-01-25T11:34:50.671Z,4.60
2019-01-25T11:37:22.506Z,4.70
2019-01-25T11:39:54.356Z,4.70
2019-01-25T11:42:27.923Z,4.70
2019-01-25T11:44:59.935Z,4.80
2019-01-25T11:47:31.776Z,4.70
2019-01-25T11:50:04.094Z,4.70
2019-01-25T11:52:36.054Z,4.70
2019-01-25T11:55:10.266Z,4.70
2019-01-25T11:57:46.147Z,4.70
2019-01-25T12:00:24.288Z,4.80
2019-01-25T12:02:56.259Z,4.80
2019-01-25T12:08:23.078Z,4.80
2019-01-25T12:10:55.131Z,4.80
2019-01-25T12:13:27.214Z,4.80
2019-01-25T12:15:59.384Z,4.90
2019-01-25T12:18:31.572Z,4.80
2019-01-25T12:21:03.551Z,4.90
2019-01-25T12:23:35.508Z,4.90
2019-01-25T12:26:07.645Z,5.00
2019-01-25T12:28:39.570Z,5.00
2019-01-25T12:31:11.447Z,5.00
2019-01-25T12:33:43.498Z,5.00
2019-01-25T12:36:15.418Z,5.10
2019-01-25T12:38:47.327Z,5.10
2019-01-25T12:41:19.174Z,5.20
2019-01-25T12:43:52.654Z,5.20
2019-01-25T12:46:24.814Z,5.30
2019-01-25T12:48:57.862Z,5.30
2019-01-25T12:51:52.958Z,5.40
2019-01-25T12:54:25.063Z,5.40
2019-01-25T12:56:57.313Z,5.50
2019-01-25T12:59:29.416Z,5.50
2019-01-25T13:02:01.604Z,5.60
2019-01-25T13:04:36.680Z,5.60
2019-01-25T13:07:17.991Z,5.70
2019-01-25T13:09:51.597Z,5.70
2019-01-25T13:12:26.318Z,5.70
2019-01-25T13:15:06.893Z,5.70
2019-01-25T13:17:40.265Z,5.80
2019-01-25T13:20:20.924Z,5.90
2019-01-25T13:22:54.564Z,6.00
2019-01-25T13:25:30.915Z,6.00
2019-01-25T13:28:02.895Z,6.10
2019-01-25T13:30:35.041Z,6.10
2019-01-25T13:33:07.182Z,6.10
2019-01-25T13:35:39.320Z,6.10
2019-01-25T13:38:11.337Z,6.10
2019-01-25T13:40:43.521Z,6.10
2019-01-25T13:43:15.457Z,6.10
2019-01-25T13:45:48.794Z,6.20
2019-01-25T13:48:20.955Z,6.20
2019-01-25T13:50:53.094Z,6.10
2019-01-25T13:53:27.952Z,6.10
2019-01-25T13:55:59.818Z,6.20
2019-01-25T13:58:34.734Z,6.20
2019-01-25T14:01:06.731Z,6.20
2019-01-25T14:03:38.619Z,6.40
2019-01-25T14:06:10.662Z,6.20
2019-01-25T14:08:45.873Z,6.30
2019-01-25T14:11:17.985Z,6.30
2019-01-25T14:13:50.149Z,6.30
2019-01-25T14:16:22.242Z,6.30
2019-01-25T14:18:54.199Z,6.30
2019-01-25T14:21:26.326Z,6.30
2019-01-25T14:23:58.293Z,6.20
2019-01-25T14:26:30.449Z,6.30
2019-01-25T14:29:02.958Z,6.30
2019-01-25T14:31:34.905Z,6.30
2019-01-25T14:34:08.295Z,6.40
2019-01-25T14:36:40.160Z,6.40
2019-01-25T14:39:12.173Z,6.50
2019-01-25T14:41:44.216Z,6.50
2019-01-25T14:44:16.269Z,6.50
2019-01-25T14:46:48.107Z,6.50
2019-01-25T14:49:21.736Z,6.50
2019-01-25T14:51:53.976Z,6.50
2019-01-25T14:54:25.810Z,6.50
2019-01-25T14:56:59.593Z,6.20
2019-01-25T14:59:31.721Z,6.50
2019-01-25T15:02:03.644Z,6.50
2019-01-25T15:04:35.525Z,6.50
2019-01-25T15:07:07.528Z,6.50
2019-01-25T15:09:40.967Z,6.50
2019-01-25T15:12:13.045Z,6.40
2019-01-25T15:14:45.144Z,6.40
2019-01-25T15:17:17.371Z,6.40
2019-01-25T15:19:49.255Z,6.30
2019-01-25T15:22:21.147Z,6.30
2019-01-25T15:24:53.161Z,6.30
2019-01-25T15:27:31.109Z,6.20
2019-01-25T15:30:04.171Z,6.20
2019-01-25T15:32:37.635Z,6.20
2019-01-25T15:35:12.091Z,6.10
2019-01-25T15:37:44.438Z,6.10
2019-01-25T15:40:17.420Z,6.10
2019-01-25T15:42:49.424Z,6.10
2019-01-25T15:45:21.973Z,6.10
2019-01-25T15:47:54.229Z,6.10
2019-01-25T15:50:32.098Z,6.10
2019-01-25T15:53:04.138Z,6.10
2019-01-25T15:55:36.735Z,6.00
2019-01-25T15:58:08.870Z,6.00
2019-01-25T16:00:40.784Z,6.00
2019-01-25T16:03:12.636Z,5.90
2019-01-25T16:05:44.563Z,5.90
2019-01-25T16:08:16.429Z,5.90
2019-01-25T16:10:48.410Z,5.80
2019-01-25T16:13:20.297Z,5.80
2019-01-25T16:15:52.306Z,5.80
2019-01-25T16:18:24.571Z,5.70
2019-01-25T16:20:56.733Z,5.60
2019-01-25T16:23:28.777Z,5.70
2019-01-25T16:26:00.924Z,5.70
2019-01-25T16:28:32.987Z,6.30
2019-01-25T16:31:05.192Z,5.70
2019-01-25T16:33:37.426Z,5.70
2019-01-25T16:36:09.641Z,5.60
2019-01-25T16:38:41.977Z,5.70
2019-01-25T16:41:13.960Z,5.60
2019-01-25T16:43:46.315Z,5.70
2019-01-25T16:46:18.518Z,5.60
2019-01-25T16:48:51.405Z,5.60
2019-01-25T16:51:24.017Z,5.50
2019-01-25T16:53:56.020Z,5.50
2019-01-25T16:56:27.923Z,5.50
2019-01-25T16:58:59.962Z,5.40
2019-01-25T17:01:32.140Z,5.40
2019-01-25T17:04:05.078Z,5.40
2019-01-25T17:06:37.004Z,5.40
2019-01-25T17:09:12.839Z,5.40
2019-01-25T17:11:44.730Z,5.40
2019-01-25T17:14:16.790Z,5.40
2019-01-25T17:16:48.825Z,5.40
2019-01-25T17:19:20.735Z,5.40
2019-01-25T17:21:52.605Z,5.40
2019-01-25T17:24:24.628Z,5.40
2019-01-25T17:26:56.517Z,5.40
2019-01-25T17:29:28.341Z,5.40
2019-01-25T17:32:00.315Z,5.40
2019-01-25T17:34:32.640Z,5.40
2019-01-25T17:37:04.645Z,5.40
2019-01-25T17:39:36.746Z,5.40
2019-01-25T17:42:08.933Z,5.40
2019-01-25T17:44:41.479Z,5.40
2019-01-25T17:47:15.233Z,5.40
2019-01-25T17:49:47.430Z,5.40
2019-01-25T17:52:21.599Z,6.10
2019-01-25T17:54:55.039Z,5.40
2019-01-25T17:57:30.479Z,5.40
2019-01-25T18:00:02.351Z,5.40
2019-01-25T18:02:34.618Z,5.40
2019-01-25T18:05:07.174Z,5.40
2019-01-25T18:07:39.024Z,5.30
2019-01-25T18:10:14.974Z,5.70
2019-01-25T18:12:48.328Z,5.30
2019-01-25T18:15:22.799Z,5.30
2019-01-25T18:17:54.798Z,5.30
2019-01-25T18:20:26.753Z,5.30
2019-01-25T18:22:58.861Z,5.30
2019-01-25T18:25:58.886Z,5.30
2019-01-25T18:28:39.897Z,5.30
2019-01-25T18:31:21.447Z,5.30
2019-01-25T18:33:53.678Z,5.30
2019-01-25T18:36:25.700Z,5.30
2019-01-25T18:39:00.688Z,6.00
2019-01-25T18:41:32.852Z,5.30
2019-01-25T18:44:09.462Z,5.30
2019-01-25T18:46:42.929Z,5.40
2019-01-25T18:49:14.842Z,5.30
2019-01-25T18:51:47.180Z,5.30
2019-01-25T18:54:19.199Z,5.40
2019-01-25T18:56:53.144Z,5.30
2019-01-25T18:59:25.150Z,5.40
2019-01-25T19:02:02.146Z,5.30
2019-01-25T19:04:34.167Z,5.40
2019-01-25T19:07:06.155Z,5.40
2019-01-25T19:09:39.302Z,5.40
2019-01-25T19:12:16.995Z,5.40
2019-01-25T19:14:49.022Z,5.40
2019-01-25T19:17:21.129Z,5.40
2019-01-25T19:19:53.309Z,5.40
2019-01-25T19:22:28.577Z,5.40
2019-01-25T19:25:00.632Z,5.40
2019-01-25T19:27:32.680Z,5.40
2019-01-25T19:30:06.498Z,5.40
2019-01-25T19:32:38.479Z,5.50
2019-01-25T19:35:12.990Z,5.40
2019-01-25T19:37:44.945Z,5.50
2019-01-25T19:40:18.492Z,5.40
2019-01-25T19:42:50.587Z,5.50
2019-01-25T19:45:23.085Z,5.40
2019-01-25T19:47:55.060Z,5.50
2019-01-25T19:50:27.530Z,5.50
2019-01-25T19:52:59.696Z,5.50
2019-01-25T19:55:32.014Z,5.50
2019-01-25T19:58:06.964Z,5.50
2019-01-25T20:00:41.201Z,5.50
2019-01-25T20:03:13.549Z,5.50
2019-01-25T20:05:47.303Z,5.50
2019-01-25T20:08:19.291Z,5.50
2019-01-25T20:10:51.533Z,5.50
2019-01-25T20:13:23.398Z,5.50
2019-01-25T20:15:55.498Z,5.50
2019-01-25T20:18:27.400Z,5.40
2019-01-25T20:20:59.521Z,5.50
2019-01-25T20:23:31.543Z,5.50
2019-01-25T20:26:03.906Z,5.50
2019-01-25T20:28:38.705Z,5.50
2019-01-25T20:31:15.702Z,5.50
2019-01-25T20:33:49.976Z,5.50
2019-01-25T20:36:22.315Z,5.60
2019-01-25T20:38:55.708Z,5.50
2019-01-25T20:41:27.631Z,5.60
2019-01-25T20:43:59.732Z,5.60
2019-01-25T20:46:31.728Z,5.60
2019-01-25T20:49:03.863Z,5.60
2019-01-25T20:51:35.797Z,5.60
2019-01-25T20:54:08.133Z,5.60
2019-01-25T20:56:40.263Z,5.60
2019-01-25T20:59:12.346Z,5.60
2019-01-25T21:01:44.437Z,5.60
2019-01-25T21:04:16.688Z,5.60
2019-01-25T21:06:50.403Z,5.60
2019-01-25T21:09:22.344Z,5.70
2019-01-25T21:11:54.415Z,5.90
2019-01-25T21:14:26.864Z,5.70
2019-01-25T21:16:58.908Z,5.70
2019-01-25T21:19:31.116Z,5.70
2019-01-25T21:22:03.064Z,5.80
2019-01-25T21:24:34.930Z,5.80
2019-01-25T21:27:07.030Z,5.80
2019-01-25T21:29:39.048Z,5.80
2019-01-25T21:32:11.131Z,5.80
2019-01-25T21:34:43.521Z,5.80
2019-01-25T21:37:15.598Z,6.20
2019-01-25T21:39:50.184Z,5.90
2019-01-25T21:42:22.275Z,5.90
2019-01-25T21:44:54.246Z,5.90
2019-01-25T21:47:26.084Z,5.90
2019-01-25T21:49:58.339Z,5.90
2019-01-25T21:52:30.631Z,5.90
2019-01-25T21:55:02.683Z,5.90
2019-01-25T21:57:34.858Z,5.90
2019-01-25T22:00:18.847Z,5.90
2019-01-25T22:02:51.048Z,5.90
2019-01-25T22:05:23.240Z,5.90
2019-01-25T22:07:55.270Z,5.90
2019-01-25T22:10:40.417Z,5.90
2019-01-25T22:13:12.332Z,5.90
2019-01-25T22:15:50.730Z,5.90
2019-01-25T22:18:18.234Z,6.00
2019-01-25T22:20:50.271Z,7.20
2019-01-25T22:23:22.407Z,6.00
2019-01-25T22:25:54.588Z,6.00
2019-01-25T22:28:26.465Z,6.00
2019-01-25T22:30:58.568Z,6.00
2019-01-25T22:33:30.455Z,6.00
2019-01-25T22:36:02.365Z,6.10
2019-01-25T22:38:34.235Z,6.10
2019-01-25T22:41:06.188Z,6.10
2019-01-25T22:43:38.027Z,6.10
2019-01-25T22:46:09.838Z,6.20
2019-01-25T22:48:41.931Z,6.20
2019-01-25T22:51:13.808Z,6.30
2019-01-25T22:53:45.650Z,6.30
2019-01-25T22:56:17.594Z,6.30
2019-01-25T22:58:49.609Z,6.30
2019-01-25T23:01:33.831Z,6.40
2019-01-25T23:04:52.463Z,6.40
2019-01-25T23:07:30.889Z,6.50
2019-01-25T23:10:16.148Z,6.50
2019-01-25T23:12:48.214Z,6.50
2019-01-25T23:15:20.754Z,6.60
2019-01-25T23:17:52.821Z,6.60
2019-01-25T23:20:24.785Z,6.60
2019-01-25T23:22:56.760Z,6.60
2019-01-25T23:25:28.610Z,6.70
2019-01-25T23:28:00.465Z,6.70
2019-01-25T23:30:32.549Z,6.70
2019-01-25T23:33:04.548Z,6.70
2019-01-25T23:35:36.652Z,6.80
2019-01-25T23:38:08.558Z,6.80
2019-01-25T23:40:40.567Z,6.80
2019-01-25T23:43:12.441Z,6.90
2019-01-25T23:45:44.330Z,6.90
2019-01-25T23:48:16.346Z,6.90
2019-01-25T23:50:48.373Z,7.00
2019-01-25T23:53:20.343Z,7.70
2019-01-25T23:55:52.189Z,7.00
2019-01-25T23:58:24.125Z,7.00
